Time;durP1;ratioP1;P1;durP2;ratioP2;P2;SDS_P1;SDS_P2;PMS_P1;PMS_P2;Temp;Humidity;BMP_temperature;BMP_pressure;BME280_temperature;BME280_humidity;BME280_pressure;Samples;Min_cycle;Max_cycle;Signal;HPM_P1;HPM_P2
2022/05/07 00:04:11;;;;;;;9.18;3.20;;;14.40;99.90;;;;;;20203117;29;20052;-39
2022/05/07 00:14:12;;;;;;;5.47;2.08;;;14.50;99.90;;;;;;20198892;29;20539;-39
2022/05/07 00:24:13;;;;;;;4.60;1.60;;;14.40;99.90;;;;;;20186302;29;21415;-39
2022/05/07 00:34:14;;;;;;;2.55;1.17;;;14.50;99.90;;;;;;20195451;29;20440;-39
2022/05/07 00:44:21;;;;;;;4.63;1.40;;;14.40;99.90;;;;;;20194222;29;20148;-39
2022/05/07 00:54:23;;;;;;;2.85;1.20;;;14.40;99.90;;;;;;20167138;29;20404;-38
2022/05/07 01:04:24;;;;;;;3.10;0.90;;;14.30;99.90;;;;;;20185399;29;20040;-38
2022/05/07 01:14:25;;;;;;;3.05;1.10;;;14.30;99.90;;;;;;20195835;29;20401;-38
2022/05/07 01:24:27;;;;;;;3.85;1.00;;;14.30;99.90;;;;;;20199023;29;20085;-39
2022/05/07 01:34:28;;;;;;;3.10;1.83;;;14.20;99.90;;;;;;20188645;29;20052;-39
2022/05/07 01:44:30;;;;;;;4.28;1.35;;;14.20;99.90;;;;;;20177329;29;20769;-39
2022/05/07 01:54:31;;;;;;;3.03;1.38;;;14.10;99.90;;;;;;20189569;29;20393;-39
2022/05/07 02:04:32;;;;;;;4.15;1.50;;;13.90;99.90;;;;;;20187884;29;20063;-39
2022/05/07 02:14:35;;;;;;;2.90;1.00;;;13.90;99.90;;;;;;20186610;29;20044;-39
2022/05/07 02:24:36;;;;;;;3.40;1.58;;;13.80;99.90;;;;;;20203799;29;20051;-39
2022/05/07 02:34:37;;;;;;;3.30;1.20;;;13.80;99.90;;;;;;20197217;28;20536;-39
2022/05/07 02:44:39;;;;;;;3.92;1.70;;;13.80;99.90;;;;;;20200617;28;20051;-39
2022/05/07 02:54:40;;;;;;;5.78;0.98;;;13.80;99.90;;;;;;20190618;28;20063;-39
2022/05/07 03:04:42;;;;;;;2.53;0.98;;;13.70;99.90;;;;;;20199342;28;20103;-39
2022/05/07 03:14:43;;;;;;;3.58;1.13;;;13.60;99.90;;;;;;20202827;28;20599;-39
2022/05/07 03:24:45;;;;;;;3.95;1.73;;;13.50;99.90;;;;;;20192032;28;20056;-39
2022/05/07 03:34:46;;;;;;;3.15;0.90;;;13.40;99.90;;;;;;20187890;28;20085;-39
2022/05/07 03:44:47;;;;;;;2.58;1.30;;;13.30;99.90;;;;;;20199085;28;20048;-39
2022/05/07 03:54:49;;;;;;;4.32;1.30;;;13.30;99.90;;;;;;20192547;29;20041;-39
2022/05/07 04:04:51;;;;;;;3.35;1.52;;;13.20;99.90;;;;;;20197003;29;20396;-39
2022/05/07 04:14:52;;;;;;;3.58;1.77;;;13.10;99.90;;;;;;20205938;29;20052;-39
2022/05/07 04:24:56;;;;;;;3.10;1.80;;;13.10;99.90;;;;;;20183925;29;20060;-39
2022/05/07 04:34:58;;;;;;;6.35;2.60;;;13.10;99.90;;;;;;20178998;29;20059;-39
2022/05/07 04:44:59;;;;;;;5.55;2.40;;;13.10;99.90;;;;;;20198113;29;20041;-38
2022/05/07 04:55:02;;;;;;;5.80;2.15;;;13.10;99.90;;;;;;20191347;29;20048;-38
2022/05/07 05:05:03;;;;;;;8.27;3.08;;;13.10;99.90;;;;;;20176795;29;20508;-39
2022/05/07 05:15:05;;;;;;;9.27;3.50;;;13.10;99.90;;;;;;20189979;29;20045;-39
2022/05/07 05:25:06;;;;;;;6.55;3.25;;;13.20;99.90;;;;;;20191307;29;20041;-38
2022/05/07 05:35:08;;;;;;;6.63;2.60;;;13.10;99.90;;;;;;20193482;29;20048;-38
2022/05/07 05:45:10;;;;;;;8.40;3.30;;;13.20;99.90;;;;;;20178514;29;20232;-39
2022/05/07 05:55:11;;;;;;;8.27;3.75;;;13.50;99.90;;;;;;20193833;29;20052;-39
2022/05/07 06:05:13;;;;;;;14.13;4.50;;;13.50;99.90;;;;;;20194082;28;20041;-39
2022/05/07 06:15:14;;;;;;;12.05;4.20;;;13.60;99.90;;;;;;20137706;29;20045;-39
2022/05/07 06:35:34;;;;;;;11.35;5.25;;;13.80;99.90;;;;;;20207503;29;20573;-38
2022/05/07 06:45:36;;;;;;;8.93;5.03;;;14.00;99.90;;;;;;20179402;29;21320;-38
2022/05/07 06:55:54;;;;;;;10.32;4.90;;;14.30;99.90;;;;;;20135080;29;20504;-39
2022/05/07 07:05:56;;;;;;;13.38;4.40;;;14.50;99.90;;;;;;20170500;29;20041;-39
2022/05/07 07:15:58;;;;;;;10.40;4.85;;;14.70;99.90;;;;;;20162137;29;20615;-39
2022/05/07 07:25:58;;;;;;;11.38;3.92;;;14.80;99.90;;;;;;20207384;29;20044;-38
2022/05/07 07:36:00;;;;;;;9.88;4.88;;;14.80;99.90;;;;;;20193968;29;20377;-38
2022/05/07 07:56:20;;;;;;;11.55;3.22;;;15.50;99.90;;;;;;20181684;29;20044;-39
2022/05/07 08:06:21;;;;;;;9.15;3.95;;;15.90;99.90;;;;;;20188234;29;20048;-39
2022/05/07 08:16:25;;;;;;;6.72;4.13;;;16.30;99.90;;;;;;20210122;28;20454;-38
2022/05/07 08:26:27;;;;;;;10.75;4.70;;;16.90;99.90;;;;;;20193386;29;20178;-37
2022/05/07 08:36:28;;;;;;;12.23;3.78;;;17.20;99.90;;;;;;20188704;28;20048;-37
2022/05/07 08:46:29;;;;;;;8.13;3.88;;;17.40;99.90;;;;;;20156191;28;20060;-37
2022/05/07 08:56:30;;;;;;;6.15;3.88;;;17.60;99.90;;;;;;20166642;29;20424;-37
2022/05/07 09:06:31;;;;;;;5.88;3.33;;;18.10;99.90;;;;;;20186762;29;20183;-36
2022/05/07 09:16:43;;;;;;;6.43;3.10;;;18.30;99.90;;;;;;20200890;29;20052;-37
2022/05/07 09:26:44;;;;;;;5.55;2.35;;;18.90;99.90;;;;;;20223411;28;20441;-37
2022/05/07 09:36:46;;;;;;;5.80;2.20;;;18.90;99.90;;;;;;20234041;29;20053;-37
2022/05/07 09:46:47;;;;;;;5.97;2.08;;;19.40;99.90;;;;;;20232175;28;20067;-37
2022/05/07 10:07:36;;;;;;;5.25;2.50;;;19.80;99.90;;;;;;20225434;28;20076;-37
2022/05/07 10:17:37;;;;;;;6.20;3.00;;;19.60;99.90;;;;;;20226711;28;21419;-37
2022/05/07 10:27:43;;;;;;;12.43;4.28;;;19.90;99.90;;;;;;20199963;28;20037;-37
2022/05/07 10:37:44;;;;;;;7.77;3.37;;;19.60;99.90;;;;;;20197628;28;20055;-37
2022/05/07 10:47:53;;;;;;;8.35;2.95;;;19.80;99.90;;;;;;20209142;28;20044;-37
2022/05/07 10:57:57;;;;;;;6.57;2.45;;;20.20;99.90;;;;;;20218495;29;20064;-37
2022/05/07 11:08:00;;;;;;;6.70;2.67;;;19.70;99.90;;;;;;20196768;29;20051;-37
2022/05/07 11:18:12;;;;;;;6.10;2.88;;;19.30;99.90;;;;;;20210244;28;20040;-37
2022/05/07 11:28:15;;;;;;;5.45;2.47;;;20.30;99.90;;;;;;20193932;29;20091;-37
2022/05/07 11:38:16;;;;;;;9.90;3.47;;;20.80;99.90;;;;;;20188382;29;20040;-37
2022/05/07 11:48:18;;;;;;;7.28;3.70;;;20.90;99.90;;;;;;20199982;29;20037;-37
2022/05/07 11:58:22;;;;;;;6.88;3.05;;;20.70;99.90;;;;;;20195663;29;20051;-37
2022/05/07 12:08:30;;;;;;;7.95;3.22;;;20.80;99.90;;;;;;20156861;28;20033;-37
2022/05/07 12:18:32;;;;;;;8.45;5.03;;;21.20;99.90;;;;;;20162808;28;20087;-37
2022/05/07 12:38:54;;;;;;;8.32;4.30;;;21.60;99.90;;;;;;20189032;28;20099;-38
2022/05/07 12:48:55;;;;;;;9.02;4.03;;;21.00;99.90;;;;;;20189004;28;20043;-37
2022/05/07 12:58:56;;;;;;;7.93;3.20;;;20.60;99.90;;;;;;20183764;29;20048;-38
2022/05/07 13:09:00;;;;;;;6.35;3.15;;;20.20;99.90;;;;;;20212310;29;20050;-38
2022/05/07 13:19:01;;;;;;;4.93;2.50;;;20.30;99.90;;;;;;20200141;29;20420;-37
2022/05/07 13:29:04;;;;;;;7.82;2.90;;;20.60;99.90;;;;;;20208642;28;20051;-37
2022/05/07 13:39:05;;;;;;;5.97;2.78;;;20.20;99.90;;;;;;20211229;29;20393;-38
2022/05/07 13:49:07;;;;;;;9.07;3.88;;;19.80;99.90;;;;;;20204600;28;20037;-37
2022/05/07 13:59:08;;;;;;;5.97;2.70;;;19.70;99.90;;;;;;20204934;29;20044;-37
2022/05/07 14:09:09;;;;;;;5.75;2.22;;;19.20;99.90;;;;;;20205513;28;20500;-37
2022/05/07 14:19:10;;;;;;;5.65;2.35;;;18.40;99.90;;;;;;20195619;29;20055;-37
2022/05/07 14:29:11;;;;;;;4.00;1.70;;;18.40;99.90;;;;;;20192603;29;20069;-38
2022/05/07 14:39:12;;;;;;;4.60;1.48;;;18.10;99.90;;;;;;20189897;28;20044;-37
2022/05/07 14:49:13;;;;;;;4.80;1.50;;;18.10;99.90;;;;;;20198618;29;20151;-37
2022/05/07 14:59:14;;;;;;;2.47;1.00;;;18.40;99.90;;;;;;20198688;29;20377;-37
2022/05/07 15:19:36;;;;;;;2.88;1.10;;;19.10;99.90;;;;;;20190127;28;20224;-37
2022/05/07 15:29:37;;;;;;;2.10;1.00;;;18.90;99.90;;;;;;20189385;29;20045;-37
2022/05/07 15:39:38;;;;;;;3.42;1.30;;;18.50;99.90;;;;;;20214170;28;20556;-37
2022/05/07 15:49:39;;;;;;;4.47;1.35;;;18.00;99.90;;;;;;20225804;28;20048;-37
2022/05/07 15:59:40;;;;;;;4.93;1.33;;;17.80;99.90;;;;;;20240568;29;20052;-37
2022/05/07 16:09:41;;;;;;;3.05;1.67;;;17.70;99.90;;;;;;20241820;29;20041;-37
2022/05/07 16:19:43;;;;;;;4.95;1.40;;;17.60;99.90;;;;;;20218476;29;20606;-37
2022/05/07 16:29:44;;;;;;;3.25;1.40;;;17.60;99.90;;;;;;20211660;28;20040;-37
2022/05/07 16:39:46;;;;;;;12.85;3.03;;;17.50;99.90;;;;;;20192288;28;20040;-37
2022/05/07 16:49:47;;;;;;;4.10;2.20;;;17.40;99.90;;;;;;20211141;29;20040;-37
2022/05/07 16:59:48;;;;;;;4.15;1.90;;;17.40;99.90;;;;;;20189821;28;20053;-37
2022/05/07 17:09:50;;;;;;;3.53;1.70;;;17.10;99.90;;;;;;20199265;28;22845;-36
2022/05/07 17:19:52;;;;;;;2.75;0.95;;;16.80;99.90;;;;;;20205857;28;20279;-36
2022/05/07 17:29:53;;;;;;;2.53;0.80;;;16.60;99.90;;;;;;20185325;29;20041;-36
2022/05/07 17:39:54;;;;;;;3.30;0.63;;;16.40;99.90;;;;;;20193516;28;20044;-37
2022/05/07 17:49:55;;;;;;;1.63;0.70;;;16.30;99.90;;;;;;20183007;28;20047;-38
2022/05/07 17:59:56;;;;;;;1.90;0.70;;;16.30;99.90;;;;;;20187988;28;20044;-39
2022/05/07 18:09:57;;;;;;;2.50;0.98;;;16.50;99.90;;;;;;20182366;28;20736;-39
2022/05/07 18:19:58;;;;;;;2.80;1.15;;;16.30;99.90;;;;;;20184710;28;20040;-39
2022/05/07 18:30:00;;;;;;;2.47;1.00;;;16.20;99.90;;;;;;20182075;28;20041;-39
2022/05/07 18:50:26;;;;;;;2.55;1.45;;;15.90;99.90;;;;;;20186547;29;20481;-39
2022/05/07 19:00:28;;;;;;;2.72;1.35;;;15.70;99.90;;;;;;20190454;28;20044;-39
2022/05/07 19:10:29;;;;;;;3.95;0.93;;;15.70;99.90;;;;;;20199955;28;20425;-39
2022/05/07 19:20:31;;;;;;;1.95;1.05;;;15.50;99.90;;;;;;20178596;29;20068;-39
2022/05/07 19:30:32;;;;;;;2.53;0.70;;;15.30;99.90;;;;;;20182004;29;20728;-39
2022/05/07 19:40:33;;;;;;;1.88;0.80;;;15.20;99.90;;;;;;20190669;28;20040;-39
2022/05/07 19:50:35;;;;;;;1.85;1.00;;;15.10;99.90;;;;;;20203443;29;20505;-39
2022/05/07 20:00:38;;;;;;;1.73;0.50;;;15.20;99.90;;;;;;20193644;28;20071;-38
2022/05/07 20:10:40;;;;;;;3.78;0.60;;;14.80;99.90;;;;;;20210402;29;20036;-39
2022/05/07 20:31:01;;;;;;;3.22;1.38;;;14.60;99.90;;;;;;20193807;29;20057;-39
2022/05/07 20:41:02;;;;;;;2.97;1.15;;;14.40;99.90;;;;;;20197171;29;20055;-38
2022/05/07 20:51:05;;;;;;;3.28;1.20;;;14.20;99.90;;;;;;20194876;29;20432;-39
2022/05/07 21:01:06;;;;;;;3.63;1.70;;;14.20;99.90;;;;;;20188205;29;20072;-38
2022/05/07 21:11:08;;;;;;;2.78;1.42;;;14.10;99.90;;;;;;20161902;29;20045;-38
2022/05/07 21:21:09;;;;;;;4.10;1.42;;;14.00;99.90;;;;;;20183990;29;20045;-39
2022/05/07 21:31:10;;;;;;;3.55;1.17;;;13.90;99.90;;;;;;20225943;29;20045;-39
2022/05/07 21:41:11;;;;;;;3.28;1.45;;;13.90;99.90;;;;;;20215639;29;20409;-38
2022/05/07 22:01:23;;;;;;;5.15;1.58;;;13.70;99.90;;;;;;20201272;29;20044;-38
2022/05/07 22:11:24;;;;;;;3.05;1.42;;;13.70;99.90;;;;;;20183138;29;20405;-38
2022/05/07 22:21:30;;;;;;;2.72;1.27;;;13.60;99.90;;;;;;20182280;29;20390;-38
2022/05/07 22:31:31;;;;;;;2.22;1.20;;;13.60;99.90;;;;;;20214377;29;20049;-38
2022/05/07 22:41:32;;;;;;;3.72;1.42;;;13.40;99.90;;;;;;20210149;29;20052;-38
2022/05/07 22:51:33;;;;;;;2.58;1.23;;;13.30;99.90;;;;;;20205432;28;20301;-38
2022/05/07 23:01:34;;;;;;;2.30;1.10;;;13.30;99.90;;;;;;20221851;29;20057;-38
2022/05/07 23:11:35;;;;;;;2.83;1.13;;;13.20;99.90;;;;;;20207158;29;20499;-39
2022/05/07 23:21:36;;;;;;;3.97;1.50;;;13.10;99.90;;;;;;20207708;29;20051;-38
2022/05/07 23:31:37;;;;;;;3.05;1.50;;;13.10;99.90;;;;;;20220477;29;20047;-38
2022/05/07 23:41:39;;;;;;;2.92;1.13;;;13.10;99.90;;;;;;20207070;29;20051;-39
2022/05/07 23:51:40;;;;;;;8.40;1.40;;;13.00;99.90;;;;;;20195692;29;20052;-38
